Angie, Louisiana
Current Conditions -  °F | °C
As of 8:35 AM on Wednesday 22 Oct 2014 (Local Time) from KBXA Reporting Station
NA  
Wind Chill: 60°   Ceiling: NA
Heat Index: 60°   Visibility: 10mi
Dew Point: 54°   Wind: 3mph
Humidity: 81%   Direction: 20°NNE
Pressure: 30.13"   Gusts: NA
Location:  30.96°N, 89.82°W
Report Text: KBXA 221335Z AUTO 02003KT 10SM 16/12 A3013 RMK AO2 T01560124
Loading
Personal Weather Stations






























Interactive Weather Map
Tropical Storm Tracking
New forecast layout! Learn more

10-Day Weather Forecast

Advertisements
Track Severe Weather on mobile